createdAt,value
2022-08-03T00:00:30.076Z,1000.05
2022-08-03T00:01:30.898Z,1000.03
2022-08-03T00:02:30.065Z,1000.07
2022-08-03T00:03:30.814Z,1000.02
2022-08-03T00:04:34.133Z,1000.05
2022-08-03T00:05:30.040Z,1000.06
2022-08-03T00:06:33.777Z,1000.03
2022-08-03T00:07:31.990Z,1000.04
2022-08-03T00:08:30.021Z,999.98
2022-08-03T00:09:35.842Z,1000.04
2022-08-03T00:10:31.777Z,1000.03
2022-08-03T00:11:30.776Z,999.98
2022-08-03T00:12:29.959Z,1000.01
2022-08-03T00:13:29.975Z,999.98
2022-08-03T00:14:29.964Z,999.99
2022-08-03T00:15:29.943Z,999.98
2022-08-03T00:16:30.912Z,999.99
2022-08-03T00:17:29.954Z,999.97
2022-08-03T00:18:30.937Z,999.93
2022-08-03T00:19:29.904Z,1000.02
2022-08-03T00:20:29.956Z,1000.03
2022-08-03T00:22:01.810Z,999.99
2022-08-03T00:22:30.902Z,999.97
2022-08-03T00:23:51.120Z,999.96
2022-08-03T00:24:31.858Z,999.97
2022-08-03T00:25:29.941Z,999.97
2022-08-03T00:26:29.860Z,999.98
2022-08-03T00:27:29.840Z,1000.05
2022-08-03T00:28:30.801Z,1000.02
2022-08-03T00:29:31.432Z,1000.01
2022-08-03T00:30:30.948Z,1000.03
2022-08-03T00:31:44.993Z,1000.04
2022-08-03T00:32:30.807Z,1000.06
2022-08-03T00:33:29.984Z,1000.04
2022-08-03T00:34:57.123Z,1000.04
2022-08-03T00:35:49.259Z,1000.05
2022-08-03T00:36:30.805Z,1000.06
2022-08-03T00:37:40.755Z,1000.09
2022-08-03T00:38:30.816Z,1000.07
2022-08-03T00:39:29.757Z,1000.03
2022-08-03T00:40:29.751Z,1000.06
2022-08-03T00:41:29.807Z,1000.04
2022-08-03T00:42:29.734Z,1000.04
2022-08-03T00:43:29.747Z,1000.04
2022-08-03T00:44:29.712Z,1000.03
2022-08-03T00:45:29.694Z,1000.02
2022-08-03T00:46:29.687Z,1000.07
2022-08-03T00:47:29.698Z,1000.04
2022-08-03T00:48:33.738Z,999.99
2022-08-03T00:49:29.729Z,999.99
2022-08-03T00:50:29.726Z,1000.05
2022-08-03T00:51:29.646Z,1000.04
2022-08-03T00:52:29.716Z,1000.02
2022-08-03T00:53:29.657Z,1000.03
2022-08-03T00:54:29.631Z,1000.05
2022-08-03T00:55:29.640Z,1000.06
2022-08-03T00:56:29.661Z,1000.08
2022-08-03T00:57:29.640Z,1000.04
2022-08-03T00:58:29.643Z,1000.05
2022-08-03T00:59:29.761Z,1000.02
2022-08-03T01:00:29.596Z,999.97
2022-08-03T01:01:32.574Z,1000.01
2022-08-03T01:03:01.513Z,1000.03
2022-08-03T01:04:01.876Z,1000.08
2022-08-03T01:05:02.397Z,1000.08
2022-08-03T01:06:01.464Z,1000.04
2022-08-03T01:06:29.538Z,999.99
2022-08-03T01:08:01.457Z,1000.06
2022-08-03T01:08:29.567Z,1000.08
2022-08-03T01:10:01.452Z,1000.08
2022-08-03T01:10:29.571Z,1000.08
2022-08-03T01:11:29.513Z,1000.07
2022-08-03T01:12:29.485Z,1000.06
2022-08-03T01:14:03.760Z,1000.05
2022-08-03T01:14:30.485Z,1000.06
2022-08-03T01:15:29.495Z,1000.07
2022-08-03T01:16:37.055Z,1000.06
2022-08-03T01:17:30.487Z,999.98
2022-08-03T01:18:29.454Z,1000.00
2022-08-03T01:19:29.443Z,1000.02
2022-08-03T01:20:29.456Z,1000.02
2022-08-03T01:21:29.472Z,1000.00
2022-08-03T01:22:29.437Z,1000.01
2022-08-03T01:23:29.462Z,999.98
2022-08-03T01:24:29.458Z,999.99
2022-08-03T01:25:29.414Z,999.97
2022-08-03T01:26:29.394Z,1000.00
2022-08-03T01:27:29.423Z,999.97
2022-08-03T01:28:29.424Z,999.99
2022-08-03T01:29:29.385Z,999.96
2022-08-03T01:30:29.358Z,1000.01
2022-08-03T01:31:29.359Z,1000.00
2022-08-03T01:32:58.849Z,999.93
2022-08-03T01:33:30.342Z,999.99
2022-08-03T01:34:29.348Z,999.94
2022-08-03T01:35:29.364Z,999.94
2022-08-03T01:36:29.336Z,999.98
2022-08-03T01:37:29.370Z,1000.01
2022-08-03T01:38:29.316Z,999.96
2022-08-03T01:39:30.127Z,999.95
2022-08-03T01:40:29.286Z,1000.05
2022-08-03T01:41:29.447Z,999.96
2022-08-03T01:42:29.275Z,1000.02
2022-08-03T01:44:28.204Z,1000.01
2022-08-03T01:44:31.013Z,1000.03
2022-08-03T02:02:32.940Z,1000.07
2022-08-03T02:03:27.845Z,1000.12
2022-08-03T02:04:26.856Z,1000.14
2022-08-03T02:05:28.019Z,1000.10
2022-08-03T02:07:02.302Z,1000.09
2022-08-03T02:07:28.987Z,1000.08
2022-08-03T02:08:27.954Z,1000.05
2022-08-03T02:09:27.969Z,1000.05
2022-08-03T02:10:34.951Z,1000.03
2022-08-03T02:11:28.975Z,1000.03
2022-08-03T02:12:27.988Z,1000.05
2022-08-03T02:13:27.912Z,1000.02
2022-08-03T02:14:27.925Z,1000.07
2022-08-03T02:15:59.889Z,999.99
2022-08-03T02:16:27.877Z,1000.06
2022-08-03T02:17:39.632Z,999.96
2022-08-03T02:18:28.883Z,999.96
2022-08-03T02:19:31.392Z,1000.04
2022-08-03T02:20:28.854Z,999.98
2022-08-03T02:21:57.233Z,1000.00
2022-08-03T02:22:28.829Z,999.97
2022-08-03T02:23:28.467Z,999.93
2022-08-03T02:24:27.863Z,1000.00
2022-08-03T02:25:27.833Z,999.98
2022-08-03T02:26:27.824Z,999.99
2022-08-03T02:27:27.775Z,1000.01
2022-08-03T02:28:27.775Z,999.98
2022-08-03T02:29:40.380Z,999.97
2022-08-03T02:30:28.765Z,999.99
2022-08-03T02:31:27.764Z,999.99
2022-08-03T02:32:27.761Z,999.89
2022-08-03T02:33:27.752Z,999.96
2022-08-03T02:34:27.738Z,999.95
2022-08-03T02:35:27.753Z,999.88
2022-08-03T02:36:27.723Z,999.96
2022-08-03T02:37:27.724Z,999.97
2022-08-03T02:38:27.741Z,999.91
2022-08-03T02:39:27.734Z,999.95
2022-08-03T02:40:27.714Z,999.90
2022-08-03T02:41:27.725Z,999.87
2022-08-03T02:42:27.668Z,999.90
2022-08-03T02:43:27.680Z,999.90
2022-08-03T02:44:28.656Z,999.88
2022-08-03T02:45:27.636Z,999.83
2022-08-03T02:46:27.667Z,999.89
2022-08-03T02:47:27.676Z,999.88
2022-08-03T02:48:27.631Z,999.84
2022-08-03T02:49:40.761Z,999.78
2022-08-03T02:50:28.596Z,999.86
2022-08-03T02:51:27.615Z,999.85
2022-08-03T02:52:27.664Z,999.87
2022-08-03T02:53:27.615Z,999.85
2022-08-03T02:54:27.572Z,999.87
2022-08-03T02:55:27.571Z,999.80
2022-08-03T02:56:27.562Z,999.87
2022-08-03T02:57:27.563Z,999.82
2022-08-03T02:58:27.565Z,999.77
2022-08-03T02:59:27.577Z,999.81
2022-08-03T03:00:28.667Z,999.78
2022-08-03T03:01:27.610Z,999.80
2022-08-03T03:02:27.537Z,999.85
2022-08-03T03:03:28.280Z,999.82
2022-08-03T03:04:28.475Z,999.75
2022-08-03T03:05:52.409Z,999.74
2022-08-03T03:06:30.106Z,999.75
2022-08-03T03:07:28.780Z,999.79
2022-08-03T03:08:29.259Z,999.79
2022-08-03T03:09:40.045Z,999.72
2022-08-03T03:10:28.473Z,999.78
2022-08-03T03:11:27.473Z,999.77
2022-08-03T03:12:27.451Z,999.78
2022-08-03T03:13:27.443Z,999.82
2022-08-03T03:14:33.711Z,999.79
2022-08-03T03:15:28.447Z,999.81
2022-08-03T03:16:27.459Z,999.83
2022-08-03T03:17:27.407Z,999.80
2022-08-03T03:18:27.389Z,999.83
2022-08-03T03:19:27.403Z,999.81
2022-08-03T03:20:30.254Z,999.83
2022-08-03T03:21:27.398Z,999.81
2022-08-03T03:22:27.382Z,999.84
2022-08-03T03:23:27.349Z,999.81
2022-08-03T03:24:27.366Z,999.83
2022-08-03T03:25:27.353Z,999.86
2022-08-03T03:26:27.326Z,999.84
2022-08-03T03:27:27.351Z,999.82
2022-08-03T03:28:27.349Z,999.75
2022-08-03T03:29:27.307Z,999.80
2022-08-03T03:30:27.320Z,999.80
2022-08-03T03:31:27.324Z,999.82
2022-08-03T03:32:27.292Z,999.82
2022-08-03T03:33:28.666Z,999.87
2022-08-03T03:34:28.285Z,999.87
2022-08-03T03:35:27.271Z,999.87
2022-08-03T03:36:27.273Z,999.89
2022-08-03T03:37:27.297Z,999.88
2022-08-03T03:38:27.246Z,999.89
2022-08-03T03:39:27.250Z,999.84
2022-08-03T03:40:27.236Z,999.90
2022-08-03T03:41:27.215Z,999.87
2022-08-03T03:42:28.237Z,999.84
2022-08-03T03:43:27.208Z,999.89
2022-08-03T03:44:27.233Z,999.87
2022-08-03T03:45:27.201Z,999.88
2022-08-03T04:01:35.867Z,1000.08
2022-08-03T04:02:35.853Z,1000.08
2022-08-03T04:03:36.971Z,1000.02
2022-08-03T04:04:36.972Z,1000.04
2022-08-03T04:05:37.065Z,1000.03
2022-08-03T04:06:36.983Z,1000.10
2022-08-03T04:07:36.945Z,1000.00
2022-08-03T04:08:36.961Z,1000.03
2022-08-03T04:09:36.929Z,999.95
2022-08-03T04:10:36.926Z,999.95
2022-08-03T04:11:36.930Z,999.96
2022-08-03T04:12:36.912Z,1000.00
2022-08-03T04:13:36.909Z,999.94
2022-08-03T04:14:36.908Z,999.96
2022-08-03T04:15:36.975Z,999.91
2022-08-03T04:16:39.803Z,999.87
2022-08-03T04:17:37.867Z,999.85
2022-08-03T04:18:37.579Z,999.83
2022-08-03T04:20:08.768Z,999.75
2022-08-03T04:20:36.839Z,999.80
2022-08-03T04:22:08.783Z,999.74
2022-08-03T04:22:36.821Z,999.67
2022-08-03T04:24:08.857Z,999.62
2022-08-03T04:24:36.896Z,999.59
2022-08-03T04:26:08.736Z,999.64
2022-08-03T04:27:08.719Z,999.59
2022-08-03T04:28:29.762Z,999.59
2022-08-03T04:28:37.788Z,999.55
2022-08-03T04:29:38.713Z,999.54
2022-08-03T04:30:38.652Z,999.53
2022-08-03T04:31:36.772Z,999.50
2022-08-03T04:32:36.806Z,999.45
2022-08-03T04:33:36.777Z,999.45
2022-08-03T04:34:36.746Z,999.39
2022-08-03T04:36:01.258Z,999.35
2022-08-03T04:36:37.733Z,999.39
2022-08-03T04:37:36.722Z,999.37
2022-08-03T04:38:36.736Z,999.38
2022-08-03T04:39:36.719Z,999.36
2022-08-03T04:40:36.706Z,999.30
2022-08-03T04:42:07.103Z,999.32
2022-08-03T04:42:37.695Z,999.30
2022-08-03T04:43:36.702Z,999.27
2022-08-03T04:44:36.686Z,999.25
2022-08-03T04:45:36.654Z,999.21
2022-08-03T04:46:36.644Z,999.18
2022-08-03T04:47:36.638Z,999.19
2022-08-03T04:48:36.631Z,999.20
2022-08-03T04:49:36.731Z,999.16
2022-08-03T04:50:36.650Z,999.16
2022-08-03T04:51:36.677Z,999.15
2022-08-03T04:52:36.624Z,999.15
2022-08-03T04:53:36.621Z,999.19
2022-08-03T04:54:36.611Z,999.13
2022-08-03T04:55:36.636Z,999.12
2022-08-03T04:56:36.587Z,999.07
2022-08-03T04:57:36.569Z,999.07
2022-08-03T04:58:36.556Z,999.06
2022-08-03T04:59:36.559Z,999.07
2022-08-03T05:00:36.589Z,999.14
2022-08-03T05:01:36.623Z,999.07
2022-08-03T05:02:36.541Z,999.16
2022-08-03T05:03:36.523Z,999.07
2022-08-03T05:04:36.505Z,999.07
2022-08-03T05:05:50.155Z,999.06
2022-08-03T05:06:41.408Z,998.99
2022-08-03T05:07:37.486Z,999.06
2022-08-03T05:08:46.087Z,999.04
2022-08-03T05:09:49.858Z,999.08
2022-08-03T05:10:37.483Z,999.00
2022-08-03T05:11:36.487Z,998.95
2022-08-03T05:12:36.459Z,999.01
2022-08-03T05:13:36.469Z,999.01
2022-08-03T05:14:36.442Z,998.98
2022-08-03T05:15:36.424Z,998.98
2022-08-03T05:16:38.202Z,998.96
2022-08-03T05:17:36.578Z,998.93
2022-08-03T05:18:36.438Z,998.94
2022-08-03T05:19:36.452Z,998.93
2022-08-03T05:20:36.389Z,998.88
2022-08-03T05:21:51.914Z,998.85
2022-08-03T05:22:37.383Z,998.80
2022-08-03T05:23:36.367Z,998.84
2022-08-03T05:24:36.434Z,998.74
2022-08-03T05:25:36.421Z,998.75
2022-08-03T05:26:36.417Z,998.70
2022-08-03T05:27:36.335Z,998.68
2022-08-03T05:28:36.340Z,998.69
2022-08-03T05:29:36.318Z,998.68
2022-08-03T05:30:37.311Z,998.68
2022-08-03T05:31:36.352Z,998.67
2022-08-03T05:32:36.312Z,998.70
2022-08-03T05:33:36.292Z,998.69
2022-08-03T05:34:36.321Z,998.70
2022-08-03T05:35:56.156Z,998.67
2022-08-03T05:36:37.290Z,998.70
2022-08-03T05:37:36.296Z,998.59
2022-08-03T05:38:36.252Z,998.60
2022-08-03T05:39:36.270Z,998.60
2022-08-03T05:40:36.293Z,998.59
2022-08-03T05:41:37.382Z,998.64
2022-08-03T05:42:36.253Z,998.60
2022-08-03T05:43:36.242Z,998.60
2022-08-03T05:44:36.245Z,998.67
2022-08-03T05:45:36.214Z,998.66
2022-08-03T05:46:36.206Z,998.66
2022-08-03T05:47:36.222Z,998.67
2022-08-03T05:48:36.193Z,998.62
2022-08-03T05:49:36.212Z,998.61
2022-08-03T05:50:38.774Z,998.59
2022-08-03T05:51:38.205Z,998.54
2022-08-03T05:52:36.162Z,998.56
2022-08-03T05:53:36.182Z,998.55
2022-08-03T05:54:56.711Z,998.49
2022-08-03T05:55:37.140Z,998.49
2022-08-03T05:56:36.149Z,998.50
2022-08-03T05:57:36.125Z,998.45
2022-08-03T05:58:36.795Z,998.45
2022-08-03T05:59:38.525Z,998.42
2022-08-03T06:00:37.102Z,998.50
2022-08-03T06:01:36.265Z,998.46
2022-08-03T06:02:36.086Z,998.49
2022-08-03T06:03:36.248Z,998.42
2022-08-03T06:04:36.078Z,998.44
2022-08-03T06:05:36.076Z,998.40
2022-08-03T06:06:37.114Z,998.38
2022-08-03T06:07:36.051Z,998.47
2022-08-03T06:08:36.072Z,998.40
2022-08-03T06:10:36.060Z,998.46
2022-08-03T06:10:38.360Z,998.44
2022-08-03T06:11:36.017Z,998.47
2022-08-03T06:12:36.079Z,998.46
2022-08-03T06:13:36.057Z,998.45
2022-08-03T06:14:36.034Z,998.39
2022-08-03T06:15:36.037Z,998.39
2022-08-03T06:16:36.033Z,998.41
2022-08-03T06:17:37.487Z,998.41
2022-08-03T06:18:35.992Z,998.42
2022-08-03T06:19:36.014Z,998.44
2022-08-03T06:20:35.974Z,998.46
2022-08-03T06:21:35.982Z,998.51
2022-08-03T06:22:35.980Z,998.50
2022-08-03T06:23:54.953Z,998.42
2022-08-03T06:24:36.958Z,998.41
2022-08-03T06:25:35.928Z,998.49
2022-08-03T06:26:35.914Z,998.43
2022-08-03T06:27:37.652Z,998.45
2022-08-03T06:28:52.690Z,998.41
2022-08-03T06:29:37.919Z,998.46
2022-08-03T06:30:35.918Z,998.48
2022-08-03T06:31:35.900Z,998.38
2022-08-03T06:32:35.887Z,998.47
2022-08-03T06:34:29.099Z,998.47
2022-08-03T06:34:36.943Z,998.47
2022-08-03T06:35:35.881Z,998.46
2022-08-03T06:36:35.889Z,998.44
2022-08-03T06:37:35.843Z,998.44
2022-08-03T06:38:35.833Z,998.44
2022-08-03T06:39:35.832Z,998.49
2022-08-03T06:40:35.829Z,998.43
2022-08-03T06:41:37.433Z,998.43
2022-08-03T06:42:35.815Z,998.42
2022-08-03T06:43:36.058Z,998.49
2022-08-03T06:45:22.384Z,998.50
2022-08-03T06:46:22.386Z,998.49
2022-08-03T06:47:23.507Z,998.45
2022-08-03T06:48:23.496Z,998.55
2022-08-03T06:49:23.599Z,998.57
2022-08-03T06:50:26.346Z,998.63
2022-08-03T06:52:04.117Z,998.59
2022-08-03T06:52:38.127Z,998.58
2022-08-03T06:53:24.446Z,998.59
2022-08-03T06:54:23.441Z,998.55
2022-08-03T06:55:23.450Z,998.60
2022-08-03T06:56:23.436Z,998.56
2022-08-03T06:57:23.509Z,998.52
2022-08-03T06:58:23.424Z,998.56
2022-08-03T07:00:06.451Z,998.54
2022-08-03T07:00:24.461Z,998.52
2022-08-03T07:01:23.424Z,998.54
2022-08-03T07:02:23.410Z,998.54
2022-08-03T07:03:23.451Z,998.52
2022-08-03T07:04:23.396Z,998.50
2022-08-03T07:05:23.541Z,998.51
2022-08-03T07:06:23.374Z,998.47
2022-08-03T07:07:23.358Z,998.46
2022-08-03T07:08:33.512Z,998.46
2022-08-03T07:09:24.425Z,998.40
2022-08-03T07:10:23.586Z,998.39
2022-08-03T07:11:23.404Z,998.39
2022-08-03T07:12:23.342Z,998.35
2022-08-03T07:13:23.313Z,998.37
2022-08-03T07:14:23.349Z,998.37
2022-08-03T07:15:38.377Z,998.38
2022-08-03T07:16:24.320Z,998.40
2022-08-03T07:17:23.294Z,998.36
2022-08-03T07:18:25.649Z,998.40
2022-08-03T07:19:24.299Z,998.37
2022-08-03T07:20:30.977Z,998.42
2022-08-03T07:21:25.284Z,998.40
2022-08-03T07:22:23.359Z,998.35
2022-08-03T07:23:23.275Z,998.28
2022-08-03T07:24:23.274Z,998.31
2022-08-03T07:25:23.245Z,998.27
2022-08-03T07:26:23.236Z,998.36
2022-08-03T07:27:23.269Z,998.33
2022-08-03T07:28:23.232Z,998.34
2022-08-03T07:29:23.216Z,998.31
2022-08-03T07:30:23.363Z,998.33
2022-08-03T07:31:23.222Z,998.28
2022-08-03T07:32:23.219Z,998.25
2022-08-03T07:33:23.202Z,998.29
2022-08-03T07:34:23.169Z,998.25
2022-08-03T07:35:24.969Z,998.29
2022-08-03T07:36:23.174Z,998.28
2022-08-03T07:37:23.149Z,998.28
2022-08-03T07:38:23.219Z,998.25
2022-08-03T07:39:23.138Z,998.27
2022-08-03T07:40:23.150Z,998.27
2022-08-03T07:41:23.120Z,998.26
2022-08-03T07:42:23.121Z,998.25
2022-08-03T07:43:23.173Z,998.25
2022-08-03T07:44:23.161Z,998.22
2022-08-03T07:45:24.182Z,998.26
2022-08-03T07:46:23.206Z,998.27
2022-08-03T07:47:23.086Z,998.27
2022-08-03T07:48:23.100Z,998.33
2022-08-03T07:49:23.161Z,998.29
2022-08-03T07:50:23.059Z,998.30
2022-08-03T07:51:23.064Z,998.28
2022-08-03T07:52:23.038Z,998.25
2022-08-03T07:53:24.079Z,998.30
2022-08-03T07:54:23.069Z,998.27
2022-08-03T07:55:23.026Z,998.23
2022-08-03T07:56:23.039Z,998.23
2022-08-03T07:57:23.054Z,998.26
2022-08-03T07:58:24.305Z,998.27
2022-08-03T07:59:23.996Z,998.20
2022-08-03T08:00:23.054Z,998.20
2022-08-03T08:01:23.070Z,998.19
2022-08-03T08:02:23.074Z,998.18
2022-08-03T08:03:22.968Z,998.16
2022-08-03T08:04:23.100Z,998.17
2022-08-03T08:05:22.954Z,998.12
2022-08-03T08:06:22.949Z,998.16
2022-08-03T08:07:22.963Z,998.16
2022-08-03T08:08:22.932Z,998.14
2022-08-03T08:09:22.951Z,998.13
2022-08-03T08:10:22.991Z,998.15
2022-08-03T08:11:22.938Z,998.15
2022-08-03T08:12:22.911Z,998.11
2022-08-03T08:13:22.940Z,998.14
2022-08-03T08:14:23.894Z,998.13
2022-08-03T08:15:22.908Z,998.12
2022-08-03T08:16:54.831Z,998.14
2022-08-03T08:17:22.902Z,998.03
2022-08-03T08:18:22.926Z,998.04
2022-08-03T08:19:22.884Z,998.07
2022-08-03T08:20:27.804Z,998.09
2022-08-03T08:21:23.839Z,998.02
2022-08-03T08:22:30.561Z,998.07
2022-08-03T08:23:41.921Z,998.06
2022-08-03T08:24:24.879Z,998.02
2022-08-03T08:25:22.837Z,997.99
2022-08-03T08:26:23.575Z,998.01
2022-08-03T08:27:22.829Z,998.05
2022-08-03T08:28:30.168Z,998.03
2022-08-03T08:29:24.817Z,998.01
2022-08-03T08:30:22.793Z,998.07
2022-08-03T08:31:22.787Z,998.02
2022-08-03T08:32:24.594Z,997.95
2022-08-03T08:33:23.963Z,997.94
2022-08-03T08:34:22.861Z,997.97
2022-08-03T08:35:22.764Z,997.97
2022-08-03T08:36:22.744Z,997.96
2022-08-03T08:37:22.744Z,998.01
2022-08-03T08:38:22.737Z,998.06
2022-08-03T08:39:22.761Z,998.01
2022-08-03T08:40:22.748Z,997.97
2022-08-03T08:41:23.586Z,997.99
2022-08-03T08:42:23.730Z,997.99
2022-08-03T08:43:22.704Z,998.01
2022-08-03T08:44:22.779Z,997.94
2022-08-03T08:45:22.828Z,997.94
2022-08-03T08:46:23.799Z,997.96
2022-08-03T08:47:22.670Z,997.94
2022-08-03T08:48:22.675Z,997.94
2022-08-03T08:49:22.685Z,997.94
2022-08-03T08:50:27.856Z,997.92
2022-08-03T08:51:23.676Z,997.96
2022-08-03T08:52:25.193Z,997.95
2022-08-03T08:53:27.313Z,997.90
2022-08-03T08:54:24.641Z,997.91
2022-08-03T08:55:22.643Z,997.98
2022-08-03T08:56:22.645Z,997.95
2022-08-03T08:57:41.839Z,997.90
2022-08-03T08:58:24.758Z,997.91
2022-08-03T08:59:22.600Z,997.86
2022-08-03T09:00:22.705Z,997.85
2022-08-03T09:01:22.785Z,997.87
2022-08-03T09:02:22.584Z,997.84
2022-08-03T09:03:29.538Z,997.87
2022-08-03T09:04:23.568Z,997.84
2022-08-03T09:05:36.251Z,997.84
2022-08-03T09:06:24.594Z,997.90
2022-08-03T09:07:22.570Z,997.86
2022-08-03T09:08:22.545Z,997.86
2022-08-03T09:10:01.331Z,997.77
2022-08-03T09:10:23.562Z,997.83
2022-08-03T09:11:22.535Z,997.80
2022-08-03T09:12:39.170Z,997.81
2022-08-03T09:13:24.548Z,997.79
2022-08-03T09:14:37.213Z,997.79
2022-08-03T09:15:23.503Z,997.80
2022-08-03T09:16:23.225Z,997.81
2022-08-03T09:17:22.728Z,997.79
2022-08-03T09:18:22.521Z,997.73
2022-08-03T09:19:23.210Z,997.75
2022-08-03T09:20:23.102Z,997.69
2022-08-03T09:21:35.993Z,997.66
2022-08-03T09:22:25.125Z,997.68
2022-08-03T09:23:58.948Z,997.66
2022-08-03T09:24:40.633Z,997.74
2022-08-03T09:25:25.183Z,997.74
2022-08-03T09:26:24.104Z,997.70
2022-08-03T09:27:23.112Z,997.76
2022-08-03T09:29:00.545Z,997.73
2022-08-03T09:29:24.110Z,997.72
2022-08-03T09:30:34.177Z,997.60
2022-08-03T09:31:23.396Z,997.55
2022-08-03T09:32:22.428Z,997.69
2022-08-03T09:33:22.388Z,997.68
2022-08-03T09:34:22.404Z,997.66
2022-08-03T09:35:33.094Z,997.69
2022-08-03T09:36:25.114Z,997.67
2022-08-03T09:37:23.223Z,997.68
2022-08-03T09:38:23.367Z,997.64
2022-08-03T09:39:41.659Z,997.61
2022-08-03T09:40:23.354Z,997.59
2022-08-03T09:41:22.349Z,997.62
2022-08-03T09:42:23.885Z,997.64
2022-08-03T09:43:22.334Z,997.59
2022-08-03T09:44:25.834Z,997.67
2022-08-03T09:45:22.322Z,997.71
2022-08-03T09:46:23.116Z,997.70
2022-08-03T09:47:26.705Z,997.69
2022-08-03T09:48:24.329Z,997.69
2022-08-03T09:49:22.380Z,997.66
2022-08-03T09:50:22.310Z,997.68
2022-08-03T09:52:27.295Z,997.71
2022-08-03T09:52:38.160Z,997.63
2022-08-03T09:53:23.296Z,997.70
2022-08-03T09:54:22.292Z,997.70
2022-08-03T09:56:05.220Z,997.67
2022-08-03T09:56:33.400Z,997.66
2022-08-03T09:57:23.255Z,997.68
2022-08-03T09:58:22.267Z,997.59
2022-08-03T09:59:22.255Z,997.63
2022-08-03T10:00:22.287Z,997.77
2022-08-03T10:01:24.142Z,997.70
2022-08-03T10:02:22.261Z,997.70
2022-08-03T10:03:22.244Z,997.74
2022-08-03T10:04:22.211Z,997.70
2022-08-03T10:05:22.231Z,997.77
2022-08-03T10:06:22.206Z,997.74
2022-08-03T10:07:22.201Z,997.66
2022-08-03T10:08:22.185Z,997.71
2022-08-03T10:09:22.176Z,997.75
2022-08-03T10:10:30.227Z,997.79
2022-08-03T10:11:23.214Z,997.70
2022-08-03T10:12:22.156Z,997.66
2022-08-03T10:13:22.142Z,997.66
2022-08-03T10:14:22.188Z,997.70
2022-08-03T10:16:21.351Z,997.68
2022-08-03T10:16:25.651Z,997.65
2022-08-03T10:17:23.130Z,997.58
2022-08-03T10:18:22.156Z,997.56
2022-08-03T10:19:22.162Z,997.63
2022-08-03T10:20:22.151Z,997.68
2022-08-03T10:21:22.105Z,997.47
2022-08-03T10:22:22.170Z,997.53
2022-08-03T10:23:22.097Z,997.50
2022-08-03T10:24:22.108Z,997.50
2022-08-03T10:25:22.112Z,997.50
2022-08-03T10:26:23.073Z,997.48
2022-08-03T10:27:22.087Z,997.49
2022-08-03T10:28:22.125Z,997.51
2022-08-03T10:29:22.065Z,997.41
2022-08-03T10:30:22.050Z,997.51
2022-08-03T10:31:22.049Z,997.46
2022-08-03T10:32:22.015Z,997.40
2022-08-03T10:33:50.131Z,997.41
2022-08-03T10:34:23.013Z,997.37
2022-08-03T10:35:22.034Z,997.36
2022-08-03T10:36:22.022Z,997.41
2022-08-03T10:37:22.027Z,997.40
2022-08-03T10:38:21.984Z,997.34
2022-08-03T10:39:22.007Z,997.32
2022-08-03T10:40:39.557Z,997.40
2022-08-03T10:41:23.972Z,997.34
2022-08-03T10:42:21.963Z,997.33
2022-08-03T10:43:22.641Z,997.37
2022-08-03T10:44:21.969Z,997.31
2022-08-03T10:45:21.949Z,997.23
2022-08-03T10:46:21.963Z,997.25
2022-08-03T10:47:21.946Z,997.24
2022-08-03T10:48:22.639Z,997.27
2022-08-03T10:49:32.849Z,997.26
2022-08-03T10:50:22.899Z,997.26
2022-08-03T10:51:21.924Z,997.22
2022-08-03T10:52:31.935Z,997.31
2022-08-03T10:53:22.882Z,997.29
2022-08-03T10:54:21.905Z,997.25
2022-08-03T10:55:21.869Z,997.31
2022-08-03T10:56:35.661Z,997.22
2022-08-03T10:57:22.952Z,997.20
2022-08-03T10:58:30.586Z,997.25
2022-08-03T10:59:27.919Z,997.22
2022-08-03T11:00:22.971Z,997.22
2022-08-03T11:01:21.937Z,997.21
2022-08-03T11:02:21.870Z,997.18
2022-08-03T11:03:22.646Z,997.13
2022-08-03T11:04:21.804Z,997.18
2022-08-03T11:05:21.839Z,997.26
2022-08-03T11:06:21.806Z,997.25
2022-08-03T11:07:22.246Z,997.07
2022-08-03T11:08:21.784Z,997.09
2022-08-03T11:09:21.769Z,997.14
2022-08-03T11:10:21.858Z,997.17
2022-08-03T11:11:21.774Z,997.15
2022-08-03T11:12:21.795Z,997.17
2022-08-03T11:13:22.792Z,997.15
2022-08-03T11:14:21.752Z,997.12
2022-08-03T11:15:21.806Z,997.05
2022-08-03T11:16:22.270Z,997.11
2022-08-03T11:17:23.295Z,997.06
2022-08-03T11:18:21.763Z,997.03
2022-08-03T11:19:23.638Z,997.03
2022-08-03T11:20:21.706Z,997.01
2022-08-03T11:21:21.705Z,997.09
2022-08-03T11:22:22.656Z,997.11
2022-08-03T11:24:04.810Z,997.02
2022-08-03T11:24:22.731Z,997.04
2022-08-03T11:25:54.115Z,997.04
2022-08-03T11:26:22.666Z,997.04
2022-08-03T11:27:21.916Z,996.99
2022-08-03T11:28:21.723Z,996.97
2022-08-03T11:29:21.659Z,996.89
2022-08-03T11:30:21.667Z,996.96
2022-08-03T11:31:48.077Z,997.00
2022-08-03T11:32:23.655Z,997.00
2022-08-03T11:33:21.617Z,996.93
2022-08-03T11:34:21.669Z,996.94
2022-08-03T11:35:21.607Z,996.93
2022-08-03T11:36:32.570Z,996.88
2022-08-03T11:37:23.124Z,996.93
2022-08-03T11:38:21.583Z,996.87
2022-08-03T11:39:21.641Z,996.95
2022-08-03T11:40:21.627Z,996.89
2022-08-03T11:41:21.592Z,996.88
2022-08-03T11:42:21.567Z,996.91
2022-08-03T11:43:25.726Z,996.90
2022-08-03T11:44:21.616Z,996.94
2022-08-03T11:45:21.565Z,997.05
2022-08-03T11:46:29.496Z,996.95
2022-08-03T11:47:22.867Z,996.99
2022-08-03T11:48:21.570Z,997.08
2022-08-03T11:49:22.645Z,997.01
2022-08-03T11:50:22.524Z,996.97
2022-08-03T11:51:22.283Z,997.03
2022-08-03T11:52:27.010Z,997.02
2022-08-03T11:53:22.506Z,996.98
2022-08-03T11:54:21.490Z,997.02
2022-08-03T11:55:21.503Z,997.01
2022-08-03T11:56:21.457Z,997.01
2022-08-03T11:57:21.470Z,997.05
2022-08-03T11:59:01.152Z,996.99
2022-08-03T11:59:22.751Z,996.96
2022-08-03T12:00:22.497Z,996.96
2022-08-03T12:01:23.203Z,996.92
2022-08-03T12:02:22.642Z,996.99
2022-08-03T12:03:21.489Z,996.94
2022-08-03T12:04:21.418Z,996.94
2022-08-03T12:05:21.410Z,996.93
2022-08-03T12:06:22.170Z,996.95
2022-08-03T12:08:02.255Z,996.98
2022-08-03T12:08:22.395Z,996.88
2022-08-03T12:09:21.471Z,996.96
2022-08-03T12:10:21.412Z,996.94
2022-08-03T12:11:22.430Z,996.91
2022-08-03T12:12:21.362Z,996.89
2022-08-03T12:14:36.707Z,996.84
2022-08-03T12:14:48.940Z,996.88
2022-08-03T12:15:22.353Z,996.84
2022-08-03T12:16:21.501Z,996.84
2022-08-03T12:17:21.661Z,996.83
2022-08-03T12:18:21.341Z,996.73
2022-08-03T12:19:21.348Z,996.71
2022-08-03T12:20:21.324Z,996.74
2022-08-03T12:21:22.299Z,996.72
2022-08-03T12:22:21.316Z,996.68
2022-08-03T12:23:21.319Z,996.66
2022-08-03T12:24:21.305Z,996.70
2022-08-03T12:25:38.644Z,996.70
2022-08-03T12:26:22.265Z,996.70
2022-08-03T12:27:21.330Z,996.71
2022-08-03T12:28:36.038Z,996.67
2022-08-03T12:29:22.764Z,996.65
2022-08-03T12:30:24.149Z,996.63
2022-08-03T12:31:26.696Z,996.62
2022-08-03T12:32:22.354Z,996.55
2022-08-03T12:33:21.251Z,996.54
2022-08-03T12:34:21.297Z,996.56
2022-08-03T12:35:21.225Z,996.60
2022-08-03T12:36:21.203Z,996.60
2022-08-03T12:37:22.607Z,996.62
2022-08-03T12:38:21.218Z,996.60
2022-08-03T12:39:21.229Z,996.58
2022-08-03T12:40:23.111Z,996.53
2022-08-03T12:41:22.186Z,996.52
2022-08-03T12:42:21.200Z,996.58
2022-08-03T12:43:21.160Z,996.58
2022-08-03T12:44:21.163Z,996.54
2022-08-03T12:45:21.178Z,996.54
2022-08-03T12:46:21.179Z,996.59
2022-08-03T12:47:21.365Z,996.49
2022-08-03T12:48:21.136Z,996.55
2022-08-03T12:49:21.191Z,996.54
2022-08-03T12:50:21.127Z,996.49
2022-08-03T12:51:21.094Z,996.52
2022-08-03T12:52:21.098Z,996.52
2022-08-03T12:53:21.684Z,996.51
2022-08-03T12:54:24.852Z,996.52
2022-08-03T12:55:21.088Z,996.47
2022-08-03T12:56:21.114Z,996.50
2022-08-03T12:57:21.533Z,996.42
2022-08-03T12:58:21.683Z,996.44